sensor_id;sensor_type;location;lat;lon;timestamp;pressure;altitude;pressure_sealevel;temperature;humidity
18436;BME280;9346;52.006;4.720;2023-06-22T00:02:21;101850.69;;;20.36;100.00
18436;BME280;9346;52.006;4.720;2023-06-22T00:04:49;101855.75;;;20.34;100.00
18436;BME280;9346;52.006;4.720;2023-06-22T00:07:17;101858.88;;;20.33;100.00
18436;BME280;9346;52.006;4.720;2023-06-22T00:09:44;101847.66;;;20.33;100.00
18436;BME280;9346;52.006;4.720;2023-06-22T00:12:13;101850.16;;;20.34;100.00
18436;BME280;9346;52.006;4.720;2023-06-22T00:14:42;101842.91;;;20.33;100.00
18436;BME280;9346;52.006;4.720;2023-06-22T00:17:09;101843.53;;;20.30;100.00
18436;BME280;9346;52.006;4.720;2023-06-22T00:19:36;101839.41;;;20.28;100.00
18436;BME280;9346;52.006;4.720;2023-06-22T00:22:06;101837.75;;;20.27;100.00
18436;BME280;9346;52.006;4.720;2023-06-22T00:24:33;101830.50;;;20.26;100.00
18436;BME280;9346;52.006;4.720;2023-06-22T00:26:59;101838.38;;;20.24;100.00
18436;BME280;9346;52.006;4.720;2023-06-22T00:29:29;101835.06;;;20.22;100.00
18436;BME280;9346;52.006;4.720;2023-06-22T00:31:56;101837.34;;;20.20;100.00
18436;BME280;9346;52.006;4.720;2023-06-22T00:34:24;101834.88;;;20.18;100.00
18436;BME280;9346;52.006;4.720;2023-06-22T00:36:52;101819.53;;;20.16;100.00
18436;BME280;9346;52.006;4.720;2023-06-22T00:39:20;101828.25;;;20.14;100.00
18436;BME280;9346;52.006;4.720;2023-06-22T00:41:47;101815.72;;;20.12;100.00
18436;BME280;9346;52.006;4.720;2023-06-22T00:44:15;101816.31;;;20.09;100.00
18436;BME280;9346;52.006;4.720;2023-06-22T00:46:44;101818.59;;;20.07;100.00
18436;BME280;9346;52.006;4.720;2023-06-22T00:49:11;101818.09;;;20.05;100.00
18436;BME280;9346;52.006;4.720;2023-06-22T00:51:38;101815.94;;;20.02;100.00
18436;BME280;9346;52.006;4.720;2023-06-22T00:54:13;101814.56;;;19.99;100.00
18436;BME280;9346;52.006;4.720;2023-06-22T00:56:41;101817.97;;;19.96;100.00
18436;BME280;9346;52.006;4.720;2023-06-22T00:59:09;101817.97;;;19.96;100.00
18436;BME280;9346;52.006;4.720;2023-06-22T01:01:44;101822.25;;;19.93;100.00
18436;BME280;9346;52.006;4.720;2023-06-22T01:04:13;101814.47;;;19.90;100.00
18436;BME280;9346;52.006;4.720;2023-06-22T01:06:47;101823.41;;;19.92;100.00
18436;BME280;9346;52.006;4.720;2023-06-22T01:09:23;101810.25;;;19.93;100.00
18436;BME280;9346;52.006;4.720;2023-06-22T01:11:56;101818.31;;;19.94;100.00
18436;BME280;9346;52.006;4.720;2023-06-22T01:14:30;101815.50;;;19.94;100.00
18436;BME280;9346;52.006;4.720;2023-06-22T01:17:01;101809.41;;;19.92;100.00
18436;BME280;9346;52.006;4.720;2023-06-22T01:19:44;101811.06;;;19.93;100.00
18436;BME280;9346;52.006;4.720;2023-06-22T01:22:15;101806.41;;;19.89;100.00
18436;BME280;9346;52.006;4.720;2023-06-22T01:24:51;101809.19;;;19.89;100.00
18436;BME280;9346;52.006;4.720;2023-06-22T01:27:32;101810.44;;;19.83;100.00
18436;BME280;9346;52.006;4.720;2023-06-22T01:30:02;101803.97;;;19.74;100.00
18436;BME280;9346;52.006;4.720;2023-06-22T01:32:33;101809.66;;;19.69;100.00
18436;BME280;9346;52.006;4.720;2023-06-22T01:35:05;101811.41;;;19.65;100.00
18436;BME280;9346;52.006;4.720;2023-06-22T01:37:35;101820.59;;;19.65;100.00
18436;BME280;9346;52.006;4.720;2023-06-22T01:40:04;101823.63;;;19.69;100.00
18436;BME280;9346;52.006;4.720;2023-06-22T01:42:33;101816.88;;;19.70;100.00
18436;BME280;9346;52.006;4.720;2023-06-22T01:45:03;101817.72;;;19.70;100.00
18436;BME280;9346;52.006;4.720;2023-06-22T01:47:33;101811.81;;;19.72;100.00
18436;BME280;9346;52.006;4.720;2023-06-22T01:50:01;101819.06;;;19.73;100.00
18436;BME280;9346;52.006;4.720;2023-06-22T01:52:29;101815.44;;;19.72;100.00
18436;BME280;9346;52.006;4.720;2023-06-22T01:54:59;101811.28;;;19.70;100.00
18436;BME280;9346;52.006;4.720;2023-06-22T01:57:26;101811.59;;;19.68;100.00
18436;BME280;9346;52.006;4.720;2023-06-22T02:00:00;101812.44;;;19.69;100.00
18436;BME280;9346;52.006;4.720;2023-06-22T02:02:33;101806.00;;;19.68;100.00
18436;BME280;9346;52.006;4.720;2023-06-22T02:05:06;101811.91;;;19.67;100.00
18436;BME280;9346;52.006;4.720;2023-06-22T02:07:39;101810.25;;;19.66;100.00
18436;BME280;9346;52.006;4.720;2023-06-22T02:10:09;101810.56;;;19.64;100.00
18436;BME280;9346;52.006;4.720;2023-06-22T02:12:40;101812.56;;;19.64;100.00
18436;BME280;9346;52.006;4.720;2023-06-22T02:15:10;101815.03;;;19.65;100.00
18436;BME280;9346;52.006;4.720;2023-06-22T02:17:40;101804.38;;;19.67;100.00
18436;BME280;9346;52.006;4.720;2023-06-22T02:20:12;101804.69;;;19.66;100.00
18436;BME280;9346;52.006;4.720;2023-06-22T02:22:40;101806.97;;;19.64;100.00
18436;BME280;9346;52.006;4.720;2023-06-22T02:25:08;101801.38;;;19.64;100.00
18436;BME280;9346;52.006;4.720;2023-06-22T02:27:35;101800.84;;;19.62;100.00
18436;BME280;9346;52.006;4.720;2023-06-22T02:30:07;101797.53;;;19.60;100.00
18436;BME280;9346;52.006;4.720;2023-06-22T02:32:35;101795.38;;;19.57;100.00
18436;BME280;9346;52.006;4.720;2023-06-22T02:35:10;101793.19;;;19.54;100.00
18436;BME280;9346;52.006;4.720;2023-06-22T02:37:38;101791.84;;;19.51;100.00
18436;BME280;9346;52.006;4.720;2023-06-22T02:40:08;101800.53;;;19.50;100.00
18436;BME280;9346;52.006;4.720;2023-06-22T02:42:36;101795.78;;;19.50;100.00
18436;BME280;9346;52.006;4.720;2023-06-22T02:45:05;101797.25;;;19.48;100.00
18436;BME280;9346;52.006;4.720;2023-06-22T02:47:34;101797.34;;;19.43;100.00
18436;BME280;9346;52.006;4.720;2023-06-22T02:50:04;101805.81;;;19.38;100.00
18436;BME280;9346;52.006;4.720;2023-06-22T02:52:34;101813.06;;;19.39;100.00
18436;BME280;9346;52.006;4.720;2023-06-22T02:55:03;101815.88;;;19.39;100.00
18436;BME280;9346;52.006;4.720;2023-06-22T02:57:32;101813.88;;;19.39;100.00
18436;BME280;9346;52.006;4.720;2023-06-22T02:59:59;101823.09;;;19.40;100.00
18436;BME280;9346;52.006;4.720;2023-06-22T03:02:26;101822.56;;;19.38;100.00
18436;BME280;9346;52.006;4.720;2023-06-22T03:04:53;101820.63;;;19.38;100.00
18436;BME280;9346;52.006;4.720;2023-06-22T03:07:21;101817.50;;;19.40;100.00
18436;BME280;9346;52.006;4.720;2023-06-22T03:09:50;101819.47;;;19.39;100.00
18436;BME280;9346;52.006;4.720;2023-06-22T03:12:19;101829.53;;;19.40;100.00
18436;BME280;9346;52.006;4.720;2023-06-22T03:14:47;101831.72;;;19.43;100.00
18436;BME280;9346;52.006;4.720;2023-06-22T03:17:14;101820.22;;;19.45;100.00
18436;BME280;9346;52.006;4.720;2023-06-22T03:19:42;101804.56;;;19.44;100.00
18436;BME280;9346;52.006;4.720;2023-06-22T03:22:12;101797.13;;;19.39;100.00
18436;BME280;9346;52.006;4.720;2023-06-22T03:24:40;101790.19;;;19.37;100.00
18436;BME280;9346;52.006;4.720;2023-06-22T03:27:11;101790.50;;;19.35;100.00
18436;BME280;9346;52.006;4.720;2023-06-22T03:29:39;101785.44;;;19.37;100.00
18436;BME280;9346;52.006;4.720;2023-06-22T03:32:07;101784.59;;;19.37;100.00
18436;BME280;9346;52.006;4.720;2023-06-22T03:34:34;101794.13;;;19.36;100.00
18436;BME280;9346;52.006;4.720;2023-06-22T03:37:03;101789.16;;;19.33;100.00
18436;BME280;9346;52.006;4.720;2023-06-22T03:39:31;101791.13;;;19.32;100.00
18436;BME280;9346;52.006;4.720;2023-06-22T03:41:59;101781.72;;;19.28;100.00
18436;BME280;9346;52.006;4.720;2023-06-22T03:44:28;101785.09;;;19.25;100.00
18436;BME280;9346;52.006;4.720;2023-06-22T03:46:55;101787.66;;;19.22;100.00
18436;BME280;9346;52.006;4.720;2023-06-22T03:49:22;101776.00;;;19.20;100.00
18436;BME280;9346;52.006;4.720;2023-06-22T03:51:50;101779.41;;;19.17;100.00
18436;BME280;9346;52.006;4.720;2023-06-22T03:54:16;101781.03;;;19.18;100.00
18436;BME280;9346;52.006;4.720;2023-06-22T03:56:45;101783.34;;;19.16;100.00
18436;BME280;9346;52.006;4.720;2023-06-22T03:59:12;101778.38;;;19.13;100.00
18436;BME280;9346;52.006;4.720;2023-06-22T04:01:42;101782.28;;;19.12;100.00
18436;BME280;9346;52.006;4.720;2023-06-22T04:04:11;101778.88;;;19.15;100.00
18436;BME280;9346;52.006;4.720;2023-06-22T04:06:39;101778.06;;;19.14;100.00
18436;BME280;9346;52.006;4.720;2023-06-22T04:09:07;101781.66;;;19.15;100.00
18436;BME280;9346;52.006;4.720;2023-06-22T04:11:36;101774.97;;;19.16;100.00
18436;BME280;9346;52.006;4.720;2023-06-22T04:14:05;101766.59;;;19.16;100.00
18436;BME280;9346;52.006;4.720;2023-06-22T04:16:33;101772.78;;;19.13;100.00
18436;BME280;9346;52.006;4.720;2023-06-22T04:19:04;101769.47;;;19.11;100.00
18436;BME280;9346;52.006;4.720;2023-06-22T04:21:32;101761.59;;;19.13;100.00
18436;BME280;9346;52.006;4.720;2023-06-22T04:24:00;101771.09;;;19.12;100.00
18436;BME280;9346;52.006;4.720;2023-06-22T04:26:28;101769.47;;;19.11;100.00
18436;BME280;9346;52.006;4.720;2023-06-22T04:28:55;101778.69;;;19.11;100.00
18436;BME280;9346;52.006;4.720;2023-06-22T04:31:22;101784.56;;;19.10;100.00
18436;BME280;9346;52.006;4.720;2023-06-22T04:33:57;101778.97;;;19.10;100.00
18436;BME280;9346;52.006;4.720;2023-06-22T04:36:33;101788.47;;;19.09;100.00
18436;BME280;9346;52.006;4.720;2023-06-22T04:39:04;101789.31;;;19.09;100.00
18436;BME280;9346;52.006;4.720;2023-06-22T04:41:32;101789.00;;;19.11;100.00
18436;BME280;9346;52.006;4.720;2023-06-22T04:44:07;101791.78;;;19.11;100.00
18436;BME280;9346;52.006;4.720;2023-06-22T04:46:35;101795.94;;;19.13;100.00
18436;BME280;9346;52.006;4.720;2023-06-22T04:49:04;101800.72;;;19.13;100.00
18436;BME280;9346;52.006;4.720;2023-06-22T04:51:41;101798.41;;;19.15;100.00
18436;BME280;9346;52.006;4.720;2023-06-22T04:54:09;101805.69;;;19.16;100.00
18436;BME280;9346;52.006;4.720;2023-06-22T04:56:37;101802.59;;;19.17;100.00
18436;BME280;9346;52.006;4.720;2023-06-22T04:59:06;101795.53;;;19.20;100.00
18436;BME280;9346;52.006;4.720;2023-06-22T05:01:38;101801.31;;;19.23;100.00
18436;BME280;9346;52.006;4.720;2023-06-22T05:04:05;101796.00;;;19.27;100.00
18436;BME280;9346;52.006;4.720;2023-06-22T05:06:33;101791.44;;;19.31;100.00
18436;BME280;9346;52.006;4.720;2023-06-22T05:09:02;101795.59;;;19.33;100.00
18436;BME280;9346;52.006;4.720;2023-06-22T05:11:30;101792.50;;;19.35;100.00
18436;BME280;9346;52.006;4.720;2023-06-22T05:13:58;101783.78;;;19.36;100.00
18436;BME280;9346;52.006;4.720;2023-06-22T05:16:25;101791.84;;;19.38;100.00
18436;BME280;9346;52.006;4.720;2023-06-22T05:18:53;101792.69;;;19.38;100.00
18436;BME280;9346;52.006;4.720;2023-06-22T05:21:25;101787.94;;;19.39;100.00
18436;BME280;9346;52.006;4.720;2023-06-22T05:23:53;101788.97;;;19.43;100.00
18436;BME280;9346;52.006;4.720;2023-06-22T05:26:23;101792.78;;;19.47;100.00
18436;BME280;9346;52.006;4.720;2023-06-22T05:28:51;101782.84;;;19.54;100.00
18436;BME280;9346;52.006;4.720;2023-06-22T05:31:18;101787.50;;;19.59;100.00
18436;BME280;9346;52.006;4.720;2023-06-22T05:33:47;101797.44;;;19.65;100.00
18436;BME280;9346;52.006;4.720;2023-06-22T05:36:15;101788.94;;;19.70;100.00
18436;BME280;9346;52.006;4.720;2023-06-22T05:38:45;101780.44;;;19.75;100.00
18436;BME280;9346;52.006;4.720;2023-06-22T05:41:14;101783.13;;;19.80;100.00
18436;BME280;9346;52.006;4.720;2023-06-22T05:43:44;101780.66;;;19.78;100.00
18436;BME280;9346;52.006;4.720;2023-06-22T05:46:11;101789.53;;;19.80;100.00
18436;BME280;9346;52.006;4.720;2023-06-22T05:48:38;101785.81;;;19.85;100.00
18436;BME280;9346;52.006;4.720;2023-06-22T05:51:06;101785.19;;;19.88;100.00
18436;BME280;9346;52.006;4.720;2023-06-22T05:53:33;101787.88;;;19.93;100.00
18436;BME280;9346;52.006;4.720;2023-06-22T05:56:00;101780.19;;;19.99;100.00
18436;BME280;9346;52.006;4.720;2023-06-22T05:58:28;101784.31;;;20.01;100.00
18436;BME280;9346;52.006;4.720;2023-06-22T06:00:57;101783.69;;;20.04;100.00
18436;BME280;9346;52.006;4.720;2023-06-22T06:03:26;101783.69;;;20.04;100.00
18436;BME280;9346;52.006;4.720;2023-06-22T06:05:54;101784.22;;;20.06;100.00
18436;BME280;9346;52.006;4.720;2023-06-22T06:08:21;101787.50;;;20.08;100.00
18436;BME280;9346;52.006;4.720;2023-06-22T06:10:50;101779.38;;;20.12;100.00
18436;BME280;9346;52.006;4.720;2023-06-22T06:13:20;101777.59;;;20.16;100.00
18436;BME280;9346;52.006;4.720;2023-06-22T06:15:47;101775.00;;;20.19;100.00
18436;BME280;9346;52.006;4.720;2023-06-22T06:18:21;101769.91;;;20.21;100.00
18436;BME280;9346;52.006;4.720;2023-06-22T06:20:48;101774.38;;;20.22;100.00
18436;BME280;9346;52.006;4.720;2023-06-22T06:23:15;101770.91;;;20.25;100.00
18436;BME280;9346;52.006;4.720;2023-06-22T06:25:42;101779.50;;;20.29;100.00
18436;BME280;9346;52.006;4.720;2023-06-22T06:28:10;101784.16;;;20.33;100.00
18436;BME280;9346;52.006;4.720;2023-06-22T06:30:37;101767.06;;;20.35;100.00
18436;BME280;9346;52.006;4.720;2023-06-22T06:33:06;101775.63;;;20.38;100.00
18436;BME280;9346;52.006;4.720;2023-06-22T06:35:36;101765.78;;;20.41;100.00
18436;BME280;9346;52.006;4.720;2023-06-22T06:38:03;101763.47;;;20.43;100.00
18436;BME280;9346;52.006;4.720;2023-06-22T06:40:32;101754.13;;;20.47;100.00
18436;BME280;9346;52.006;4.720;2023-06-22T06:42:59;101757.44;;;20.49;100.00
18436;BME280;9346;52.006;4.720;2023-06-22T06:45:27;101754.72;;;20.58;100.00
18436;BME280;9346;52.006;4.720;2023-06-22T06:47:56;101758.84;;;20.60;100.00
18436;BME280;9346;52.006;4.720;2023-06-22T06:50:25;101755.09;;;20.65;100.00
18436;BME280;9346;52.006;4.720;2023-06-22T06:52:54;101753.81;;;20.71;100.00
18436;BME280;9346;52.006;4.720;2023-06-22T06:55:24;101754.69;;;20.80;100.00
18436;BME280;9346;52.006;4.720;2023-06-22T06:57:51;101748.78;;;20.81;100.00
18436;BME280;9346;52.006;4.720;2023-06-22T07:00:20;101745.81;;;20.86;100.00
18436;BME280;9346;52.006;4.720;2023-06-22T07:02:48;101745.38;;;20.93;100.00
18436;BME280;9346;52.006;4.720;2023-06-22T07:05:15;101745.09;;;20.94;100.00
18436;BME280;9346;52.006;4.720;2023-06-22T07:07:42;101743.81;;;21.00;100.00
18436;BME280;9346;52.006;4.720;2023-06-22T07:10:11;101743.50;;;21.10;100.00
18436;BME280;9346;52.006;4.720;2023-06-22T07:12:40;101743.22;;;21.20;100.00
18436;BME280;9346;52.006;4.720;2023-06-22T07:15:09;101730.41;;;21.28;100.00
18436;BME280;9346;52.006;4.720;2023-06-22T07:17:40;101721.50;;;21.34;100.00
18436;BME280;9346;52.006;4.720;2023-06-22T07:20:10;101727.97;;;21.43;100.00
18436;BME280;9346;52.006;4.720;2023-06-22T07:22:38;101718.78;;;21.51;100.00
18436;BME280;9346;52.006;4.720;2023-06-22T07:25:07;101713.31;;;21.55;100.00
18436;BME280;9346;52.006;4.720;2023-06-22T07:27:44;101706.59;;;21.64;100.00
18436;BME280;9346;52.006;4.720;2023-06-22T07:30:12;101718.94;;;21.72;100.00
18436;BME280;9346;52.006;4.720;2023-06-22T07:32:40;101714.72;;;21.83;100.00
18436;BME280;9346;52.006;4.720;2023-06-22T07:35:08;101707.47;;;21.82;100.00
18436;BME280;9346;52.006;4.720;2023-06-22T07:37:36;101711.59;;;21.84;100.00
18436;BME280;9346;52.006;4.720;2023-06-22T07:40:07;101712.56;;;21.88;100.00
18436;BME280;9346;52.006;4.720;2023-06-22T07:42:35;101715.56;;;22.01;100.00
18436;BME280;9346;52.006;4.720;2023-06-22T07:45:05;101719.19;;;22.10;100.00
18436;BME280;9346;52.006;4.720;2023-06-22T07:47:33;101707.97;;;22.18;100.00
18436;BME280;9346;52.006;4.720;2023-06-22T07:50:02;101707.63;;;22.20;100.00
18436;BME280;9346;52.006;4.720;2023-06-22T07:52:31;101714.06;;;22.20;100.00
18436;BME280;9346;52.006;4.720;2023-06-22T07:54:58;101704.31;;;22.18;100.00
18436;BME280;9346;52.006;4.720;2023-06-22T07:57:27;101697.91;;;22.26;100.00
18436;BME280;9346;52.006;4.720;2023-06-22T07:59:59;101695.75;;;22.23;100.00
18436;BME280;9346;52.006;4.720;2023-06-22T08:02:32;101691.28;;;22.22;100.00
18436;BME280;9346;52.006;4.720;2023-06-22T08:05:00;101692.09;;;22.31;100.00
18436;BME280;9346;52.006;4.720;2023-06-22T08:07:27;101686.31;;;22.36;100.00
18436;BME280;9346;52.006;4.720;2023-06-22T08:09:55;101689.44;;;22.43;100.00
18436;BME280;9346;52.006;4.720;2023-06-22T08:12:30;101679.19;;;22.47;100.00
18436;BME280;9346;52.006;4.720;2023-06-22T08:14:59;101681.53;;;22.53;100.00
18436;BME280;9346;52.006;4.720;2023-06-22T08:17:26;101679.66;;;22.66;100.00
18436;BME280;9346;52.006;4.720;2023-06-22T08:19:57;101673.19;;;22.74;100.00
18436;BME280;9346;52.006;4.720;2023-06-22T08:22:25;101681.97;;;22.72;100.00
18436;BME280;9346;52.006;4.720;2023-06-22T08:24:52;101685.75;;;22.76;100.00
18436;BME280;9346;52.006;4.720;2023-06-22T08:27:20;101682.25;;;22.88;100.00
18436;BME280;9346;52.006;4.720;2023-06-22T08:29:49;101682.03;;;22.93;100.00
18436;BME280;9346;52.006;4.720;2023-06-22T08:32:17;101665.03;;;22.89;100.00
18436;BME280;9346;52.006;4.720;2023-06-22T08:34:44;101668.53;;;22.86;100.00
18436;BME280;9346;52.006;4.720;2023-06-22T08:37:13;101661.22;;;22.94;100.00
18436;BME280;9346;52.006;4.720;2023-06-22T08:39:40;101669.31;;;22.95;100.00
18436;BME280;9346;52.006;4.720;2023-06-22T08:42:08;101672.88;;;23.04;100.00
18436;BME280;9346;52.006;4.720;2023-06-22T08:44:37;101658.63;;;23.18;100.00
18436;BME280;9346;52.006;4.720;2023-06-22T08:47:04;101658.16;;;23.16;100.00
18436;BME280;9346;52.006;4.720;2023-06-22T08:49:32;101661.44;;;23.18;100.00
18436;BME280;9346;52.006;4.720;2023-06-22T08:51:59;101659.13;;;23.20;100.00
18436;BME280;9346;52.006;4.720;2023-06-22T08:54:28;101661.91;;;23.28;100.00
18436;BME280;9346;52.006;4.720;2023-06-22T08:57:00;101661.50;;;23.38;100.00
18436;BME280;9346;52.006;4.720;2023-06-22T08:59:27;101660.81;;;23.41;100.00
18436;BME280;9346;52.006;4.720;2023-06-22T09:01:54;101657.41;;;23.36;100.00
18436;BME280;9346;52.006;4.720;2023-06-22T09:04:22;101653.56;;;23.40;100.00
18436;BME280;9346;52.006;4.720;2023-06-22T09:06:49;101653.00;;;23.47;100.00
18436;BME280;9346;52.006;4.720;2023-06-22T09:09:17;101639.09;;;23.50;100.00
18436;BME280;9346;52.006;4.720;2023-06-22T09:11:47;101645.75;;;23.46;100.00
18436;BME280;9346;52.006;4.720;2023-06-22T09:14:14;101639.44;;;23.49;100.00
18436;BME280;9346;52.006;4.720;2023-06-22T09:16:42;101640.22;;;23.58;100.00
18436;BME280;9346;52.006;4.720;2023-06-22T09:19:09;101642.88;;;23.54;100.00
18436;BME280;9346;52.006;4.720;2023-06-22T09:21:37;101642.53;;;23.56;100.00
18436;BME280;9346;52.006;4.720;2023-06-22T09:24:05;101639.50;;;23.61;100.00
18436;BME280;9346;52.006;4.720;2023-06-22T09:26:34;101639.66;;;23.64;100.00
18436;BME280;9346;52.006;4.720;2023-06-22T09:29:04;101642.28;;;23.69;100.00
18436;BME280;9346;52.006;4.720;2023-06-22T09:31:32;101638.06;;;23.75;100.00
18436;BME280;9346;52.006;4.720;2023-06-22T09:33:59;101645.81;;;23.78;100.00
18436;BME280;9346;52.006;4.720;2023-06-22T09:36:26;101633.88;;;23.81;100.00
18436;BME280;9346;52.006;4.720;2023-06-22T09:38:54;101646.44;;;23.84;100.00
18436;BME280;9346;52.006;4.720;2023-06-22T09:41:24;101634.03;;;23.85;100.00
18436;BME280;9346;52.006;4.720;2023-06-22T09:43:51;101636.59;;;23.90;100.00
18436;BME280;9346;52.006;4.720;2023-06-22T09:46:20;101634.16;;;23.88;100.00
18436;BME280;9346;52.006;4.720;2023-06-22T09:48:51;101634.81;;;23.94;100.00
18436;BME280;9346;52.006;4.720;2023-06-22T09:51:18;101628.88;;;23.87;100.00
18436;BME280;9346;52.006;4.720;2023-06-22T09:53:47;101623.94;;;23.84;100.00
18436;BME280;9346;52.006;4.720;2023-06-22T09:56:15;101626.88;;;23.87;100.00
18436;BME280;9346;52.006;4.720;2023-06-22T09:58:42;101615.09;;;23.94;100.00
18436;BME280;9346;52.006;4.720;2023-06-22T10:01:10;101613.25;;;23.98;100.00
18436;BME280;9346;52.006;4.720;2023-06-22T10:03:39;101618.53;;;23.99;100.00
18436;BME280;9346;52.006;4.720;2023-06-22T10:06:07;101620.66;;;24.02;100.00
18436;BME280;9346;52.006;4.720;2023-06-22T10:08:34;101620.66;;;24.02;100.00
18436;BME280;9346;52.006;4.720;2023-06-22T10:11:02;101624.06;;;24.08;100.00
18436;BME280;9346;52.006;4.720;2023-06-22T10:13:31;101621.84;;;24.14;100.00
18436;BME280;9346;52.006;4.720;2023-06-22T10:15:58;101618.69;;;24.15;100.00
18436;BME280;9346;52.006;4.720;2023-06-22T10:18:25;101626.09;;;24.20;100.00
18436;BME280;9346;52.006;4.720;2023-06-22T10:20:55;101623.44;;;24.23;100.00
18436;BME280;9346;52.006;4.720;2023-06-22T10:23:23;101625.41;;;24.23;100.00
18436;BME280;9346;52.006;4.720;2023-06-22T10:25:50;101624.22;;;24.24;100.00
18436;BME280;9346;52.006;4.720;2023-06-22T10:28:18;101619.66;;;24.19;100.00
18436;BME280;9346;52.006;4.720;2023-06-22T10:30:45;101625.66;;;24.18;100.00
18436;BME280;9346;52.006;4.720;2023-06-22T10:33:13;101626.44;;;24.18;100.00
18436;BME280;9346;52.006;4.720;2023-06-22T10:35:41;101625.28;;;24.19;100.00
18436;BME280;9346;52.006;4.720;2023-06-22T10:38:11;101631.38;;;24.21;100.00
18436;BME280;9346;52.006;4.720;2023-06-22T10:40:38;101630.94;;;24.19;100.00
18436;BME280;9346;52.006;4.720;2023-06-22T10:43:06;101632.56;;;24.20;100.00
18436;BME280;9346;52.006;4.720;2023-06-22T10:45:33;101629.75;;;24.20;100.00
18436;BME280;9346;52.006;4.720;2023-06-22T10:48:02;101630.22;;;24.22;100.00
18436;BME280;9346;52.006;4.720;2023-06-22T10:50:30;101632.22;;;24.22;100.00
18436;BME280;9346;52.006;4.720;2023-06-22T10:52:58;101629.06;;;24.23;100.00
18436;BME280;9346;52.006;4.720;2023-06-22T10:55:28;101632.81;;;24.27;100.00
18436;BME280;9346;52.006;4.720;2023-06-22T10:57:55;101641.84;;;24.33;100.00
18436;BME280;9346;52.006;4.720;2023-06-22T11:00:22;101647.97;;;24.35;100.00
18436;BME280;9346;52.006;4.720;2023-06-22T11:02:51;101650.44;;;24.36;100.00
18436;BME280;9346;52.006;4.720;2023-06-22T11:05:18;101644.47;;;24.38;100.00
18436;BME280;9346;52.006;4.720;2023-06-22T11:07:46;101641.75;;;24.41;100.00
18436;BME280;9346;52.006;4.720;2023-06-22T11:10:15;101629.81;;;24.44;100.00
18436;BME280;9346;52.006;4.720;2023-06-22T11:12:44;101639.44;;;24.43;100.00
18436;BME280;9346;52.006;4.720;2023-06-22T11:15:13;101638.00;;;24.37;100.00
18436;BME280;9346;52.006;4.720;2023-06-22T11:17:39;101635.44;;;24.32;100.00
18436;BME280;9346;52.006;4.720;2023-06-22T11:20:07;101629.78;;;24.32;100.00
18436;BME280;9346;52.006;4.720;2023-06-22T11:22:36;101633.06;;;24.34;100.00
18436;BME280;9346;52.006;4.720;2023-06-22T11:25:05;101634.25;;;24.33;100.00
18436;BME280;9346;52.006;4.720;2023-06-22T11:27:33;101623.19;;;24.28;100.00
18436;BME280;9346;52.006;4.720;2023-06-22T11:30:02;101627.38;;;24.22;100.00
18436;BME280;9346;52.006;4.720;2023-06-22T11:32:33;101624.56;;;24.22;100.00
18436;BME280;9346;52.006;4.720;2023-06-22T11:35:00;101624.13;;;24.20;100.00
18436;BME280;9346;52.006;4.720;2023-06-22T11:37:28;101611.69;;;24.21;100.00
18436;BME280;9346;52.006;4.720;2023-06-22T11:39:56;101608.41;;;24.19;100.00
18436;BME280;9346;52.006;4.720;2023-06-22T11:42:23;101602.16;;;24.14;100.00
18436;BME280;9346;52.006;4.720;2023-06-22T11:44:51;101592.75;;;24.10;100.00
18436;BME280;9346;52.006;4.720;2023-06-22T11:47:21;101589.94;;;24.10;100.00
18436;BME280;9346;52.006;4.720;2023-06-22T11:49:49;101587.97;;;24.10;100.00
18436;BME280;9346;52.006;4.720;2023-06-22T11:52:16;101593.34;;;24.03;100.00
18436;BME280;9346;52.006;4.720;2023-06-22T11:54:44;101582.19;;;24.07;100.00
18436;BME280;9346;52.006;4.720;2023-06-22T11:57:13;101584.06;;;24.02;100.00
18436;BME280;9346;52.006;4.720;2023-06-22T11:59:40;101579.13;;;23.99;100.00
18436;BME280;9346;52.006;4.720;2023-06-22T12:02:08;101578.63;;;23.97;100.00
18436;BME280;9346;52.006;4.720;2023-06-22T12:04:38;101583.28;;;23.93;100.00
18436;BME280;9346;52.006;4.720;2023-06-22T12:07:05;101575.19;;;23.92;100.00
18436;BME280;9346;52.006;4.720;2023-06-22T12:09:32;101574.94;;;23.85;100.00
18436;BME280;9346;52.006;4.720;2023-06-22T12:11:59;101573.50;;;23.79;100.00
18436;BME280;9346;52.006;4.720;2023-06-22T12:14:26;101572.56;;;23.75;100.00
18436;BME280;9346;52.006;4.720;2023-06-22T12:16:53;101579.34;;;23.74;100.00
18436;BME280;9346;52.006;4.720;2023-06-22T12:19:21;101572.75;;;23.70;100.00
18436;BME280;9346;52.006;4.720;2023-06-22T12:21:50;101573.09;;;23.68;100.00
18436;BME280;9346;52.006;4.720;2023-06-22T12:24:17;101573.94;;;23.69;100.00
18436;BME280;9346;52.006;4.720;2023-06-22T12:26:44;101579.06;;;23.67;100.00
18436;BME280;9346;52.006;4.720;2023-06-22T12:29:14;101577.44;;;23.66;100.00
18436;BME280;9346;52.006;4.720;2023-06-22T12:31:42;101577.63;;;23.61;100.00
18436;BME280;9346;52.006;4.720;2023-06-22T12:34:09;101574.97;;;23.64;100.00
18436;BME280;9346;52.006;4.720;2023-06-22T12:36:37;101572.38;;;23.59;100.00
18436;BME280;9346;52.006;4.720;2023-06-22T12:39:06;101566.13;;;23.54;100.00
18436;BME280;9346;52.006;4.720;2023-06-22T12:41:34;101568.47;;;23.52;100.00
18436;BME280;9346;52.006;4.720;2023-06-22T12:44:01;101567.28;;;23.53;100.00
18436;BME280;9346;52.006;4.720;2023-06-22T12:46:28;101567.63;;;23.51;100.00
18436;BME280;9346;52.006;4.720;2023-06-22T12:49:02;101567.28;;;23.53;100.00
18436;BME280;9346;52.006;4.720;2023-06-22T12:51:29;101566.34;;;23.49;100.00
18436;BME280;9346;52.006;4.720;2023-06-22T12:53:56;101557.41;;;23.47;100.00
18436;BME280;9346;52.006;4.720;2023-06-22T12:56:26;101552.81;;;23.42;100.00
18436;BME280;9346;52.006;4.720;2023-06-22T12:58:53;101556.81;;;23.41;100.00